臺中航空站 - ATIS

METAR RCMQ 021800Z 01009KT 9999 FEW010 13/09 Q1020 RMK A3012=

站台狀態:Online
最後更新:2021-12-03 02:30:01